Time;durP1;ratioP1;P1;durP2;ratioP2;P2;SDS_P1;SDS_P2;PMS_P1;PMS_P2;Temp;Humidity;BMP_temperature;BMP_pressure;BME280_temperature;BME280_humidity;BME280_pressure;Samples;Min_cycle;Max_cycle;Signal;HPM_P1;HPM_P2
2022/08/15 00:00:49;;;;;;;3.27;3.00;;;26.10;48.60;;;;;;7383460;19;20528;-46
2022/08/15 00:03:28;;;;;;;4.83;3.40;;;26.10;48.80;;;;;;7379439;19;20383;-46
2022/08/15 00:05:58;;;;;;;3.30;3.00;;;26.10;48.60;;;;;;7380340;19;20950;-46
2022/08/15 00:08:28;;;;;;;3.30;3.10;;;26.00;49.00;;;;;;7375778;19;20447;-46
2022/08/15 00:11:01;;;;;;;4.03;3.47;;;25.70;49.90;;;;;;7372668;19;20368;-46
2022/08/15 00:13:31;;;;;;;3.80;3.50;;;25.60;50.40;;;;;;7375902;19;20383;-46
2022/08/15 00:16:01;;;;;;;5.20;3.23;;;25.60;50.80;;;;;;7379890;19;21006;-47
2022/08/15 00:18:33;;;;;;;3.87;3.47;;;25.50;50.90;;;;;;7383864;19;20380;-46
2022/08/15 00:21:04;;;;;;;3.57;3.27;;;25.50;51.10;;;;;;7381710;19;20391;-47
2022/08/15 00:23:33;;;;;;;3.97;3.57;;;25.60;51.00;;;;;;7378646;19;20368;-46
2022/08/15 00:26:05;;;;;;;3.80;3.13;;;25.50;51.10;;;;;;7383369;19;20375;-46
2022/08/15 00:28:35;;;;;;;4.13;3.27;;;25.50;51.50;;;;;;7387213;19;20826;-46
2022/08/15 00:31:08;;;;;;;5.83;3.43;;;25.50;51.50;;;;;;7386584;19;20372;-46
2022/08/15 00:33:41;;;;;;;3.53;3.23;;;25.30;52.00;;;;;;7383311;19;20412;-46
2022/08/15 00:36:10;;;;;;;6.10;3.50;;;25.20;52.00;;;;;;7379328;19;21069;-46
2022/08/15 00:38:40;;;;;;;4.50;4.10;;;25.10;51.70;;;;;;7386162;19;20419;-46
2022/08/15 00:44:02;;;;;;;4.30;3.87;;;25.20;51.90;;;;;;7384683;19;20396;-47
2022/08/15 00:46:32;;;;;;;4.37;3.97;;;25.20;51.90;;;;;;7384825;19;20376;-46
2022/08/15 00:49:05;;;;;;;4.00;3.70;;;25.30;51.50;;;;;;7387305;19;20384;-46
2022/08/15 00:51:41;;;;;;;4.47;3.70;;;25.30;51.40;;;;;;7385482;19;20376;-46
2022/08/15 00:54:13;;;;;;;3.70;3.40;;;25.40;51.80;;;;;;7387602;19;20392;-46
2022/08/15 00:56:48;;;;;;;5.47;4.70;;;25.40;51.80;;;;;;7383410;19;20702;-47
2022/08/15 00:59:22;;;;;;;4.90;3.90;;;25.40;51.80;;;;;;7383221;19;20375;-46
2022/08/15 01:01:54;;;;;;;4.70;4.30;;;25.50;52.10;;;;;;7379147;19;20423;-46
2022/08/15 01:04:27;;;;;;;3.87;3.57;;;25.40;52.20;;;;;;7379867;19;20380;-46
2022/08/15 01:06:58;;;;;;;3.63;3.33;;;25.50;52.10;;;;;;7385906;19;20368;-46
2022/08/15 01:09:30;;;;;;;5.27;4.00;;;25.50;52.10;;;;;;7384493;19;20372;-45
2022/08/15 01:12:07;;;;;;;4.20;3.90;;;25.60;52.00;;;;;;7380740;19;20937;-45
2022/08/15 01:14:39;;;;;;;4.53;4.07;;;25.50;52.20;;;;;;7384333;19;20395;-45
2022/08/15 01:17:10;;;;;;;4.10;3.80;;;25.40;52.80;;;;;;7381656;19;20411;-45
2022/08/15 01:19:49;;;;;;;5.57;3.60;;;25.00;53.30;;;;;;7384042;19;20373;-45
2022/08/15 01:22:38;;;;;;;3.97;3.60;;;25.00;53.60;;;;;;7382628;19;20397;-45
2022/08/15 01:25:14;;;;;;;4.53;3.73;;;24.90;53.60;;;;;;7381899;19;20737;-46
2022/08/15 01:27:49;;;;;;;4.20;3.80;;;24.90;53.90;;;;;;7383946;19;20481;-45
2022/08/15 01:30:22;;;;;;;3.97;3.67;;;24.80;54.10;;;;;;7380224;19;21091;-45
2022/08/15 01:32:51;;;;;;;4.40;4.00;;;24.90;54.00;;;;;;7382334;19;20956;-45
2022/08/15 01:35:21;;;;;;;4.00;3.70;;;24.90;54.00;;;;;;7379675;19;20399;-45
2022/08/15 01:37:51;;;;;;;5.63;4.37;;;24.90;53.80;;;;;;7377792;19;20450;-45
2022/08/15 01:40:33;;;;;;;4.53;3.87;;;25.00;53.80;;;;;;7377298;19;20388;-46
2022/08/15 01:43:04;;;;;;;4.20;3.83;;;25.20;53.60;;;;;;7377141;19;20424;-46
2022/08/15 01:45:36;;;;;;;4.93;4.40;;;25.20;53.40;;;;;;7376796;19;20380;-47
2022/08/15 01:48:13;;;;;;;4.03;3.70;;;25.20;53.70;;;;;;7379312;19;20770;-46
2022/08/15 01:50:49;;;;;;;6.90;4.10;;;25.20;54.10;;;;;;7378328;19;20910;-46
2022/08/15 01:53:25;;;;;;;5.07;3.70;;;25.10;54.20;;;;;;7380134;19;20951;-46
2022/08/15 01:56:06;;;;;;;4.70;4.20;;;25.20;54.50;;;;;;7375726;19;20395;-46
2022/08/15 01:58:40;;;;;;;4.60;3.63;;;25.20;54.60;;;;;;7372852;19;20425;-46
2022/08/15 02:01:12;;;;;;;3.83;3.53;;;25.30;54.50;;;;;;7373756;19;20990;-46
2022/08/15 02:03:44;;;;;;;6.20;3.93;;;25.30;54.70;;;;;;7374550;19;20368;-46
2022/08/15 02:06:17;;;;;;;5.57;3.87;;;25.20;55.50;;;;;;7375035;19;20395;-46
2022/08/15 02:08:47;;;;;;;4.33;3.90;;;25.20;55.60;;;;;;7379502;19;20392;-46
2022/08/15 02:11:22;;;;;;;4.60;4.00;;;25.20;55.90;;;;;;7375014;19;20372;-45
2022/08/15 02:13:56;;;;;;;6.43;3.90;;;25.10;56.30;;;;;;7379674;19;20947;-45
2022/08/15 02:16:30;;;;;;;4.67;3.90;;;25.00;56.60;;;;;;7371533;19;20856;-45
2022/08/15 02:19:03;;;;;;;5.53;3.67;;;25.00;56.80;;;;;;7371583;19;20471;-45
2022/08/15 02:21:33;;;;;;;3.60;3.30;;;25.00;57.10;;;;;;7376224;19;21021;-45
2022/08/15 02:24:02;;;;;;;5.07;3.40;;;25.00;56.90;;;;;;7376518;19;20388;-45
2022/08/15 02:26:37;;;;;;;4.17;3.80;;;25.10;56.80;;;;;;7377802;19;20391;-45
2022/08/15 02:29:09;;;;;;;3.43;3.13;;;25.20;56.70;;;;;;7374082;19;20387;-45
2022/08/15 02:31:40;;;;;;;5.20;4.20;;;25.10;57.00;;;;;;7375108;19;20444;-46
2022/08/15 02:34:10;;;;;;;4.60;3.67;;;25.20;57.00;;;;;;7374380;19;20384;-45
2022/08/15 02:36:41;;;;;;;4.83;3.40;;;25.20;57.00;;;;;;7372661;19;20381;-45
2022/08/15 02:39:12;;;;;;;4.33;3.63;;;25.20;56.80;;;;;;7378497;19;20384;-45
2022/08/15 02:41:50;;;;;;;4.50;3.50;;;25.20;56.70;;;;;;7374880;19;20380;-46
2022/08/15 02:44:22;;;;;;;4.03;3.40;;;25.30;56.70;;;;;;7380519;19;20909;-46
2022/08/15 02:46:58;;;;;;;4.43;3.40;;;25.30;56.60;;;;;;7371196;19;20374;-46
2022/08/15 02:49:27;;;;;;;6.60;4.37;;;25.30;56.80;;;;;;7373058;19;20380;-46
2022/08/15 02:52:00;;;;;;;3.57;3.27;;;25.30;57.00;;;;;;7378683;19;20376;-46
2022/08/15 02:54:30;;;;;;;4.53;3.33;;;25.30;56.80;;;;;;7376203;19;20741;-46
2022/08/15 02:57:03;;;;;;;4.00;3.60;;;25.20;57.30;;;;;;7380259;19;20387;-46
2022/08/15 02:59:32;;;;;;;4.03;3.30;;;25.20;57.20;;;;;;7372921;19;20379;-47
2022/08/15 03:02:02;;;;;;;5.00;3.17;;;25.00;57.90;;;;;;7371947;19;20461;-46
2022/08/15 03:04:34;;;;;;;4.00;3.30;;;25.00;58.00;;;;;;7375147;19;20379;-46
2022/08/15 03:07:05;;;;;;;3.30;3.00;;;25.00;58.20;;;;;;7371411;19;20391;-46
2022/08/15 03:09:35;;;;;;;4.20;3.40;;;24.90;58.40;;;;;;7381986;19;20375;-46
2022/08/15 03:12:14;;;;;;;4.93;3.60;;;24.80;58.60;;;;;;7373607;19;20761;-45
2022/08/15 03:14:46;;;;;;;3.70;3.40;;;24.80;58.70;;;;;;7377129;19;20380;-45
2022/08/15 03:17:15;;;;;;;3.97;3.57;;;24.80;59.00;;;;;;7373538;19;20395;-45
2022/08/15 03:19:48;;;;;;;4.73;4.10;;;24.80;58.90;;;;;;7376163;19;20372;-45
2022/08/15 03:22:18;;;;;;;5.50;3.30;;;24.70;59.10;;;;;;7373575;19;20417;-45
2022/08/15 03:24:48;;;;;;;3.20;2.90;;;24.90;58.90;;;;;;7376799;19;20368;-45
2022/08/15 03:27:22;;;;;;;4.47;3.10;;;24.70;59.00;;;;;;7374880;19;20388;-46
2022/08/15 03:29:52;;;;;;;3.83;2.80;;;24.50;60.10;;;;;;7372769;19;20368;-45
2022/08/15 03:32:23;;;;;;;9.47;3.80;;;24.50;59.60;;;;;;7372389;19;20376;-45
2022/08/15 03:34:52;;;;;;;3.70;3.30;;;24.40;59.80;;;;;;7384156;19;20719;-45
2022/08/15 03:37:22;;;;;;;4.53;3.23;;;24.50;59.70;;;;;;7375735;19;20369;-45
2022/08/15 03:39:51;;;;;;;6.77;2.93;;;24.60;59.50;;;;;;7379196;19;20395;-46
2022/08/15 03:42:25;;;;;;;3.43;2.93;;;24.40;61.10;;;;;;7371875;19;20368;-45
2022/08/15 03:44:56;;;;;;;4.80;2.53;;;24.40;61.00;;;;;;7376930;19;20419;-46
2022/08/15 03:47:25;;;;;;;6.47;3.57;;;24.40;62.00;;;;;;7375555;19;21061;-45
2022/08/15 03:49:55;;;;;;;5.10;2.90;;;24.40;62.70;;;;;;7377418;19;20383;-45
2022/08/15 03:52:25;;;;;;;3.67;2.83;;;24.20;63.30;;;;;;7372550;19;20372;-45
2022/08/15 03:54:54;;;;;;;2.97;2.67;;;24.30;63.80;;;;;;7373838;19;20375;-46
2022/08/15 03:57:29;;;;;;;4.97;3.20;;;24.30;63.60;;;;;;7368743;19;20391;-45
2022/08/15 03:59:59;;;;;;;3.27;2.90;;;24.30;63.60;;;;;;7369264;19;20376;-45
2022/08/15 04:02:28;;;;;;;3.20;2.90;;;24.40;63.50;;;;;;7371082;19;21097;-46
2022/08/15 04:04:58;;;;;;;7.10;3.40;;;24.60;62.90;;;;;;7366773;19;20911;-45
2022/08/15 04:07:28;;;;;;;4.10;2.90;;;24.50;63.00;;;;;;7377291;19;20834;-45
2022/08/15 04:09:58;;;;;;;5.70;2.83;;;24.60;62.80;;;;;;7379390;19;20369;-46
2022/08/15 04:12:37;;;;;;;3.73;3.07;;;24.70;62.60;;;;;;7375048;19;20816;-45
2022/08/15 04:15:10;;;;;;;3.70;3.00;;;24.60;64.10;;;;;;7369611;19;20436;-45
2022/08/15 04:17:39;;;;;;;4.23;3.07;;;24.30;64.00;;;;;;7374901;19;20408;-45
2022/08/15 04:20:11;;;;;;;4.30;2.60;;;24.30;63.70;;;;;;7375183;19;20368;-45
2022/08/15 04:22:43;;;;;;;4.00;2.40;;;24.40;64.00;;;;;;7366211;19;20364;-46
2022/08/15 04:25:18;;;;;;;2.73;2.53;;;24.30;63.80;;;;;;7373574;19;20841;-45
2022/08/15 04:27:52;;;;;;;3.40;2.53;;;24.30;63.60;;;;;;7374616;19;20989;-45
2022/08/15 04:30:24;;;;;;;3.00;2.70;;;24.40;62.70;;;;;;7365743;19;20394;-45
2022/08/15 04:32:56;;;;;;;2.70;2.47;;;24.30;62.90;;;;;;7369948;19;20388;-45
2022/08/15 04:35:26;;;;;;;2.60;2.40;;;24.10;62.60;;;;;;7376421;19;20376;-45
2022/08/15 04:37:57;;;;;;;2.63;2.23;;;23.90;63.30;;;;;;7382242;19;20382;-45
2022/08/15 04:40:28;;;;;;;2.37;1.90;;;23.80;63.80;;;;;;7384819;19;20385;-45
2022/08/15 04:43:02;;;;;;;2.83;2.53;;;23.80;63.70;;;;;;7385970;19;20384;-46
2022/08/15 04:45:35;;;;;;;4.77;2.57;;;23.90;63.40;;;;;;7379927;19;20379;-45
2022/08/15 04:48:05;;;;;;;2.90;2.57;;;24.00;63.20;;;;;;7376987;19;20380;-45
2022/08/15 04:50:38;;;;;;;6.00;3.20;;;24.10;63.30;;;;;;7380745;19;20368;-46
2022/08/15 04:53:12;;;;;;;3.47;2.70;;;24.00;64.20;;;;;;7378509;19;20882;-46
2022/08/15 04:55:44;;;;;;;3.17;2.60;;;23.70;65.50;;;;;;7385585;19;20391;-46
2022/08/15 04:58:18;;;;;;;3.50;2.63;;;23.70;65.90;;;;;;7379620;19;20392;-47
2022/08/15 05:00:55;;;;;;;4.67;3.40;;;23.70;65.90;;;;;;7381623;19;20431;-46
2022/08/15 05:03:33;;;;;;;6.03;3.80;;;23.80;66.10;;;;;;7385188;19;20383;-46
2022/08/15 05:06:05;;;;;;;4.97;2.70;;;23.80;65.60;;;;;;7385141;19;21039;-46
2022/08/15 05:08:37;;;;;;;3.73;2.63;;;23.90;65.70;;;;;;7376797;19;20990;-46
2022/08/15 05:11:17;;;;;;;4.13;3.07;;;23.90;65.20;;;;;;7382489;19;20379;-46
2022/08/15 05:13:54;;;;;;;3.87;2.97;;;23.90;65.20;;;;;;7383352;19;20394;-47
2022/08/15 05:16:32;;;;;;;3.20;2.70;;;24.00;64.90;;;;;;7385770;19;21064;-46
2022/08/15 05:19:03;;;;;;;4.33;2.90;;;24.00;64.80;;;;;;7385656;19;20399;-46
2022/08/15 05:21:34;;;;;;;5.10;2.43;;;23.90;64.70;;;;;;7382366;19;20948;-46
2022/08/15 05:24:06;;;;;;;2.90;2.60;;;23.70;65.50;;;;;;7381240;19;20484;-46
2022/08/15 05:26:35;;;;;;;10.50;8.60;;;23.80;65.40;;;;;;7380131;19;20368;-47
2022/08/15 05:29:08;;;;;;;4.80;3.00;;;23.90;64.50;;;;;;7381512;19;20376;-46
2022/08/15 05:31:38;;;;;;;2.50;2.30;;;24.00;64.00;;;;;;7382714;19;20447;-47
2022/08/15 05:34:12;;;;;;;3.40;2.90;;;23.90;64.30;;;;;;7383070;19;20985;-47
2022/08/15 05:36:56;;;;;;;6.30;2.83;;;24.00;63.80;;;;;;7386191;19;20380;-46
2022/08/15 05:39:31;;;;;;;2.70;2.00;;;23.90;64.50;;;;;;7384954;19;20415;-46
2022/08/15 05:42:14;;;;;;;2.67;2.20;;;23.80;65.10;;;;;;7387075;19;20392;-46
2022/08/15 05:44:57;;;;;;;2.73;2.53;;;23.90;65.90;;;;;;7386567;19;20408;-46
2022/08/15 05:47:35;;;;;;;5.30;2.70;;;23.90;66.00;;;;;;7384139;19;20439;-46
2022/08/15 05:50:14;;;;;;;2.77;2.00;;;23.80;66.00;;;;;;7385834;19;20467;-46
2022/08/15 05:52:51;;;;;;;2.70;2.43;;;23.80;66.10;;;;;;7384686;19;20380;-46
2022/08/15 05:55:29;;;;;;;3.13;2.20;;;23.90;65.80;;;;;;7385331;19;20360;-47
2022/08/15 05:58:20;;;;;;;3.00;2.13;;;23.70;66.40;;;;;;7385910;19;20379;-46
2022/08/15 06:01:06;;;;;;;2.43;2.03;;;23.90;65.70;;;;;;7383548;19;20445;-46
2022/08/15 06:03:39;;;;;;;3.80;2.30;;;24.00;65.10;;;;;;7384465;19;20921;-47
2022/08/15 06:06:13;;;;;;;2.50;1.93;;;24.00;65.00;;;;;;7384366;19;20424;-46
2022/08/15 06:08:48;;;;;;;2.93;2.03;;;23.80;65.40;;;;;;7385248;19;20376;-46
2022/08/15 06:11:23;;;;;;;2.20;2.00;;;23.90;65.40;;;;;;7385710;19;20391;-46
2022/08/15 06:13:57;;;;;;;2.43;2.20;;;23.90;64.90;;;;;;7385109;19;20386;-47
2022/08/15 06:16:36;;;;;;;3.27;2.40;;;23.80;65.10;;;;;;7386372;19;20460;-46
2022/08/15 06:19:21;;;;;;;2.80;2.20;;;23.60;66.00;;;;;;7385111;19;20379;-46
2022/08/15 06:22:00;;;;;;;3.67;2.30;;;23.60;66.70;;;;;;7384853;19;20380;-46
2022/08/15 06:24:37;;;;;;;3.20;2.50;;;23.70;67.10;;;;;;7382110;19;20375;-46
2022/08/15 06:27:16;;;;;;;2.60;2.40;;;23.90;68.40;;;;;;7384291;19;20376;-46
2022/08/15 06:30:09;;;;;;;2.60;2.40;;;24.00;68.00;;;;;;7383620;19;20942;-47
2022/08/15 06:32:52;;;;;;;2.90;2.70;;;24.00;68.60;;;;;;7383662;19;20432;-46
2022/08/15 06:35:36;;;;;;;2.70;1.83;;;24.00;69.50;;;;;;7383875;19;20372;-46
2022/08/15 06:38:16;;;;;;;3.83;1.97;;;24.00;68.30;;;;;;7385720;19;20377;-47
2022/08/15 06:40:51;;;;;;;2.83;2.20;;;24.10;68.50;;;;;;7384961;19;20743;-46
2022/08/15 06:43:21;;;;;;;4.57;2.90;;;24.20;67.10;;;;;;7384048;19;20409;-47
2022/08/15 06:46:11;;;;;;;7.20;2.27;;;24.20;67.40;;;;;;7376232;19;20941;-46
2022/08/15 06:48:45;;;;;;;2.03;1.93;;;24.20;66.70;;;;;;7377529;19;20387;-46
2022/08/15 06:51:17;;;;;;;3.30;2.07;;;24.20;67.20;;;;;;7379181;19;20368;-46
2022/08/15 06:53:52;;;;;;;4.20;2.50;;;24.30;66.20;;;;;;7380695;19;20371;-46
2022/08/15 06:56:33;;;;;;;2.40;1.83;;;24.20;65.00;;;;;;7376861;19;20734;-46
2022/08/15 06:59:11;;;;;;;3.80;2.33;;;24.30;65.40;;;;;;7378882;19;20399;-47
2022/08/15 07:01:57;;;;;;;2.50;1.80;;;24.20;64.70;;;;;;7379390;19;20434;-45
2022/08/15 07:04:39;;;;;;;2.23;2.03;;;24.10;63.40;;;;;;7368317;19;20391;-45
2022/08/15 07:07:17;;;;;;;3.10;2.37;;;24.20;63.70;;;;;;7373635;19;20427;-45
2022/08/15 07:09:56;;;;;;;2.50;2.10;;;24.10;63.50;;;;;;7374323;19;20675;-45
2022/08/15 07:12:34;;;;;;;3.47;2.73;;;24.10;63.40;;;;;;7377782;19;20902;-45
2022/08/15 07:15:07;;;;;;;2.77;2.30;;;24.20;62.60;;;;;;7371692;19;20371;-45
2022/08/15 07:17:45;;;;;;;2.13;1.60;;;24.30;62.10;;;;;;7374421;19;21095;-45
2022/08/15 07:20:18;;;;;;;2.33;2.13;;;24.50;61.60;;;;;;7373293;19;20370;-45
2022/08/15 07:22:48;;;;;;;2.30;2.10;;;24.70;60.40;;;;;;7377073;19;20376;-45
2022/08/15 07:25:32;;;;;;;3.80;2.10;;;24.90;60.10;;;;;;7375089;19;20375;-45
2022/08/15 07:28:05;;;;;;;1.90;1.60;;;25.00;59.30;;;;;;7378812;19;20392;-45
2022/08/15 07:30:47;;;;;;;3.43;2.47;;;25.20;58.90;;;;;;7372215;19;20368;-46
2022/08/15 07:33:39;;;;;;;1.97;1.77;;;25.50;58.10;;;;;;7377137;19;20431;-47
2022/08/15 07:36:23;;;;;;;2.10;1.90;;;25.80;56.80;;;;;;7370114;19;20380;-46
2022/08/15 07:38:57;;;;;;;3.30;1.60;;;26.10;56.00;;;;;;7373735;19;20786;-46
2022/08/15 07:41:33;;;;;;;2.50;1.80;;;26.20;55.40;;;;;;7381170;19;20752;-47
2022/08/15 07:44:22;;;;;;;3.50;2.10;;;26.50;55.20;;;;;;7379565;19;20383;-47
2022/08/15 07:46:57;;;;;;;6.27;2.10;;;26.70;54.00;;;;;;7379379;19;20376;-47
2022/08/15 07:49:32;;;;;;;1.63;1.53;;;26.80;54.10;;;;;;7380073;19;20828;-46
2022/08/15 07:52:20;;;;;;;5.07;1.93;;;27.20;53.10;;;;;;7377463;19;20388;-47
2022/08/15 07:54:53;;;;;;;2.23;1.63;;;27.40;52.10;;;;;;7368341;19;20973;-47
2022/08/15 07:57:32;;;;;;;3.20;2.00;;;27.30;52.20;;;;;;7364609;19;20387;-46
2022/08/15 08:00:18;;;;;;;2.93;1.90;;;26.90;53.10;;;;;;7366280;19;20427;-48
2022/08/15 08:03:03;;;;;;;1.70;1.60;;;26.60;53.60;;;;;;7376818;19;20396;-47
2022/08/15 08:05:40;;;;;;;2.27;2.00;;;26.70;53.80;;;;;;7360209;19;20383;-47
2022/08/15 08:08:13;;;;;;;2.70;1.80;;;26.80;53.50;;;;;;7372650;19;20372;-46
2022/08/15 08:10:50;;;;;;;2.37;2.17;;;26.80;53.40;;;;;;7364968;19;20380;-47
2022/08/15 08:13:38;;;;;;;3.73;2.27;;;26.70;53.50;;;;;;7383046;19;20387;-47
2022/08/15 08:16:19;;;;;;;1.40;1.30;;;26.60;53.30;;;;;;7378569;19;20464;-47
2022/08/15 08:18:58;;;;;;;2.20;1.53;;;26.50;53.80;;;;;;7380137;19;20364;-46
2022/08/15 08:21:36;;;;;;;2.47;2.00;;;26.70;53.20;;;;;;7372369;19;20363;-47
2022/08/15 08:24:16;;;;;;;2.27;1.70;;;26.90;53.00;;;;;;7372454;19;20463;-47
2022/08/15 08:26:55;;;;;;;2.50;1.97;;;27.10;52.40;;;;;;7371905;19;20363;-47
2022/08/15 08:29:33;;;;;;;3.23;1.60;;;27.30;51.70;;;;;;7374618;19;20395;-46
2022/08/15 08:32:12;;;;;;;4.07;1.80;;;27.60;51.20;;;;;;7372659;19;22607;-47
2022/08/15 08:34:50;;;;;;;2.80;1.40;;;27.90;50.50;;;;;;7378040;19;20412;-47
2022/08/15 08:37:28;;;;;;;3.30;1.50;;;28.20;49.20;;;;;;7381744;19;20412;-47
2022/08/15 08:42:57;;;;;;;1.93;1.43;;;28.80;48.10;;;;;;7376673;19;20472;-47
2022/08/15 08:45:31;;;;;;;1.40;1.30;;;29.30;47.20;;;;;;7378952;19;20372;-47
2022/08/15 08:48:27;;;;;;;1.77;1.30;;;29.70;45.80;;;;;;7372204;19;20366;-47
2022/08/15 08:51:07;;;;;;;3.70;1.40;;;30.00;46.00;;;;;;7378964;19;20379;-47
2022/08/15 08:53:47;;;;;;;5.63;2.00;;;30.10;45.30;;;;;;7377730;19;20375;-47
2022/08/15 08:56:26;;;;;;;1.63;1.10;;;30.40;44.70;;;;;;7371690;19;20423;-47
2022/08/15 08:59:05;;;;;;;1.60;1.50;;;30.50;43.90;;;;;;7372900;19;20387;-47
2022/08/15 09:01:35;;;;;;;1.90;1.37;;;30.80;43.40;;;;;;7370157;19;20459;-48
2022/08/15 09:04:09;;;;;;;2.63;1.50;;;30.60;43.30;;;;;;7371523;19;20429;-47
2022/08/15 09:06:41;;;;;;;2.47;1.53;;;30.60;43.50;;;;;;7378016;19;20376;-47
2022/08/15 09:09:31;;;;;;;1.50;1.40;;;31.00;42.80;;;;;;7368988;19;20397;-47
2022/08/15 09:14:54;;;;;;;1.47;1.37;;;31.20;42.40;;;;;;7377930;19;20409;-47
2022/08/15 09:17:27;;;;;;;2.20;1.60;;;31.20;41.90;;;;;;7371264;19;20454;-47
2022/08/15 09:20:04;;;;;;;1.90;1.57;;;30.80;42.00;;;;;;7372474;19;20400;-47
2022/08/15 09:22:34;;;;;;;2.23;2.03;;;30.60;42.40;;;;;;7369846;19;20375;-47
2022/08/15 09:25:03;;;;;;;2.80;1.90;;;30.60;42.40;;;;;;7370065;19;20412;-47
2022/08/15 09:27:40;;;;;;;2.50;1.53;;;30.60;42.70;;;;;;7370420;19;20408;-48
2022/08/15 09:30:14;;;;;;;2.07;1.87;;;31.10;42.00;;;;;;7380614;19;20852;-47
2022/08/15 09:33:02;;;;;;;1.73;1.53;;;31.10;41.60;;;;;;7374177;19;20379;-46
2022/08/15 09:35:48;;;;;;;1.47;1.30;;;31.30;41.80;;;;;;7375007;19;20372;-46
2022/08/15 09:38:44;;;;;;;1.67;1.57;;;32.00;40.50;;;;;;7367709;19;21082;-46
2022/08/15 09:41:42;;;;;;;2.33;1.90;;;32.40;39.30;;;;;;7370698;19;20484;-46
2022/08/15 09:44:36;;;;;;;2.07;1.70;;;32.20;39.90;;;;;;7371085;19;20388;-47
2022/08/15 09:47:19;;;;;;;2.00;1.80;;;31.90;41.10;;;;;;7370708;19;20379;-46
2022/08/15 09:50:16;;;;;;;2.50;2.30;;;31.60;41.50;;;;;;7379135;19;21063;-46
2022/08/15 09:52:55;;;;;;;3.40;1.90;;;31.40;41.80;;;;;;7378432;19;20380;-46
2022/08/15 09:55:32;;;;;;;3.03;2.10;;;31.10;42.20;;;;;;7374737;19;20989;-46
2022/08/15 09:58:17;;;;;;;4.83;2.37;;;31.40;41.80;;;;;;7372794;19;20926;-46
2022/08/15 10:01:05;;;;;;;2.53;1.80;;;32.20;41.10;;;;;;7368462;19;20469;-46
2022/08/15 10:04:01;;;;;;;2.33;2.03;;;33.40;38.90;;;;;;7370437;19;20487;-47
2022/08/15 10:06:33;;;;;;;2.30;1.50;;;34.80;37.30;;;;;;7363269;19;20379;-47
2022/08/15 10:09:32;;;;;;;2.10;1.53;;;35.80;34.10;;;;;;7363145;19;20372;-47
2022/08/15 10:12:22;;;;;;;1.93;1.77;;;36.90;33.60;;;;;;7368500;19;20494;-47
2022/08/15 10:15:07;;;;;;;2.10;1.90;;;38.00;32.60;;;;;;7377275;19;20402;-47
2022/08/15 10:17:46;;;;;;;2.67;2.27;;;38.80;31.40;;;;;;7379348;19;20368;-47
2022/08/15 10:20:50;;;;;;;1.83;1.73;;;39.00;31.10;;;;;;7371404;19;20944;-48
2022/08/15 10:23:21;;;;;;;1.83;1.73;;;39.10;29.90;;;;;;7374242;19;20392;-48
2022/08/15 10:26:11;;;;;;;2.20;1.47;;;38.70;30.60;;;;;;7378418;19;20372;-48
2022/08/15 10:28:57;;;;;;;3.07;1.77;;;38.80;30.70;;;;;;7380856;19;20375;-47
2022/08/15 10:31:33;;;;;;;1.60;1.37;;;39.30;29.90;;;;;;7381845;19;20759;-48
2022/08/15 10:34:08;;;;;;;1.93;1.77;;;39.60;29.40;;;;;;7382515;19;20376;-48
2022/08/15 10:36:38;;;;;;;2.20;2.00;;;39.90;29.10;;;;;;7376184;19;20412;-48
2022/08/15 10:39:35;;;;;;;2.70;1.63;;;40.10;29.10;;;;;;7381986;19;20474;-48
2022/08/15 10:42:16;;;;;;;2.37;1.77;;;40.10;29.10;;;;;;7381818;19;20410;-48
2022/08/15 10:44:56;;;;;;;2.17;1.80;;;40.30;28.80;;;;;;7380005;19;20926;-48
2022/08/15 10:47:34;;;;;;;2.27;1.80;;;39.40;29.90;;;;;;7384147;19;20870;-48
2022/08/15 10:50:20;;;;;;;2.40;1.70;;;39.10;30.10;;;;;;7380534;19;20870;-48
2022/08/15 10:53:06;;;;;;;1.70;1.53;;;38.70;30.80;;;;;;7380185;19;20368;-48
2022/08/15 10:55:37;;;;;;;2.13;1.70;;;39.80;30.10;;;;;;7377775;19;20385;-48
2022/08/15 10:58:16;;;;;;;2.03;1.70;;;40.70;28.90;;;;;;7378874;19;20377;-48
2022/08/15 11:00:53;;;;;;;1.97;1.43;;;42.10;28.00;;;;;;7375649;19;20428;-48
2022/08/15 11:03:32;;;;;;;1.60;1.40;;;42.50;27.10;;;;;;7380177;19;20374;-48
2022/08/15 11:06:08;;;;;;;7.23;1.50;;;43.70;26.30;;;;;;7381278;19;20770;-48
2022/08/15 11:08:48;;;;;;;1.50;1.40;;;44.20;25.40;;;;;;7380215;19;20898;-48
2022/08/15 11:11:20;;;;;;;1.70;1.60;;;44.00;25.50;;;;;;7377185;19;20502;-48
2022/08/15 11:13:54;;;;;;;2.00;1.80;;;44.10;25.30;;;;;;7377137;19;20388;-48
2022/08/15 11:16:31;;;;;;;1.83;1.27;;;43.90;25.30;;;;;;7377056;19;20383;-48
2022/08/15 11:19:02;;;;;;;2.23;1.40;;;44.20;25.00;;;;;;7378336;19;20376;-48
2022/08/15 11:21:43;;;;;;;3.60;2.07;;;43.30;25.50;;;;;;7375848;19;20417;-48
2022/08/15 11:24:15;;;;;;;2.03;1.80;;;41.90;26.50;;;;;;7375233;19;20799;-48
2022/08/15 11:26:48;;;;;;;2.20;1.80;;;40.70;27.50;;;;;;7375430;19;21220;-48
2022/08/15 11:29:21;;;;;;;3.30;1.80;;;39.90;28.60;;;;;;7377911;19;20944;-48
2022/08/15 11:31:55;;;;;;;3.57;2.53;;;40.70;27.80;;;;;;7378454;19;20405;-48
2022/08/15 11:34:36;;;;;;;2.37;2.10;;;42.10;26.50;;;;;;7380349;19;20380;-49
2022/08/15 11:37:14;;;;;;;2.20;1.57;;;42.90;25.70;;;;;;7374263;19;20916;-49
2022/08/15 11:39:46;;;;;;;2.80;1.77;;;44.00;24.90;;;;;;7377931;19;20372;-50
2022/08/15 11:42:20;;;;;;;2.93;1.80;;;43.50;25.10;;;;;;7374481;19;21002;-50
2022/08/15 11:44:57;;;;;;;2.33;2.13;;;43.30;25.40;;;;;;7378541;19;20369;-49
2022/08/15 11:47:29;;;;;;;2.93;1.77;;;44.00;24.70;;;;;;7387867;19;20379;-49
2022/08/15 11:50:03;;;;;;;2.20;1.97;;;43.30;24.80;;;;;;7380455;19;20372;-49
2022/08/15 11:52:39;;;;;;;2.77;1.50;;;41.90;26.00;;;;;;7383498;19;20755;-50
2022/08/15 11:55:21;;;;;;;2.20;1.60;;;40.90;27.20;;;;;;7388680;19;20384;-49
2022/08/15 11:57:53;;;;;;;4.27;1.90;;;41.10;26.50;;;;;;7388111;19;20382;-49
2022/08/15 12:00:28;;;;;;;2.40;1.57;;;40.90;26.90;;;;;;7384322;19;20447;-48
2022/08/15 12:03:01;;;;;;;1.60;1.40;;;39.60;28.00;;;;;;7379390;19;20407;-49
2022/08/15 12:05:34;;;;;;;2.63;2.17;;;39.20;28.40;;;;;;7383691;19;20399;-49
2022/08/15 12:08:09;;;;;;;1.80;1.70;;;39.60;28.40;;;;;;7387170;19;20389;-49
2022/08/15 12:10:43;;;;;;;3.40;2.90;;;40.10;27.90;;;;;;7384450;19;20375;-48
2022/08/15 12:13:19;;;;;;;3.30;2.93;;;40.80;27.20;;;;;;7386519;19;20387;-48
2022/08/15 12:15:48;;;;;;;2.37;1.90;;;42.30;26.20;;;;;;7388049;19;20386;-49
2022/08/15 12:18:35;;;;;;;2.30;1.50;;;43.40;25.20;;;;;;7381845;19;20403;-48
2022/08/15 12:21:13;;;;;;;2.97;1.73;;;44.10;24.50;;;;;;7384504;19;21163;-49
2022/08/15 12:23:54;;;;;;;3.73;1.50;;;44.50;24.30;;;;;;7386050;19;20909;-48
2022/08/15 12:26:26;;;;;;;2.10;1.90;;;44.40;24.10;;;;;;7381952;19;20460;-48
2022/08/15 12:28:57;;;;;;;7.27;2.00;;;43.40;24.60;;;;;;7386726;19;20950;-48
2022/08/15 12:31:31;;;;;;;1.73;1.63;;;42.80;25.00;;;;;;7385161;19;20370;-48
2022/08/15 12:34:09;;;;;;;1.60;1.50;;;43.00;24.80;;;;;;7390184;19;20941;-48
2022/08/15 12:36:42;;;;;;;1.60;1.50;;;43.40;24.60;;;;;;7384448;19;20368;-48
2022/08/15 12:39:17;;;;;;;1.93;1.73;;;44.40;23.80;;;;;;7384261;19;20458;-48
2022/08/15 12:41:53;;;;;;;1.87;1.77;;;45.10;23.40;;;;;;7389109;19;20376;-48
2022/08/15 12:44:26;;;;;;;2.03;1.60;;;45.90;23.00;;;;;;7383824;19;21057;-48
2022/08/15 12:46:57;;;;;;;3.80;1.67;;;;;;;;;;7381411;19;20445;-48
2022/08/15 12:49:27;;;;;;;4.97;1.70;;;46.70;21.90;;;;;;7384150;19;20906;-48
2022/08/15 12:51:56;;;;;;;2.17;1.90;;;46.30;22.50;;;;;;7384282;19;20372;-48
2022/08/15 12:54:28;;;;;;;2.33;1.80;;;44.70;23.70;;;;;;7382384;19;20376;-48
2022/08/15 12:56:58;;;;;;;2.63;2.20;;;43.80;24.50;;;;;;7379943;19;21165;-48
2022/08/15 12:59:30;;;;;;;2.20;1.87;;;42.20;25.50;;;;;;7377378;19;20486;-48
2022/08/15 13:02:00;;;;;;;3.30;2.30;;;41.20;27.00;;;;;;7380676;19;20433;-48
2022/08/15 13:04:32;;;;;;;2.23;2.00;;;40.00;27.50;;;;;;7386019;19;20396;-47
2022/08/15 13:07:03;;;;;;;2.10;1.80;;;38.20;29.00;;;;;;7384816;19;20887;-47
2022/08/15 13:09:36;;;;;;;2.13;1.93;;;37.10;30.50;;;;;;7384456;19;20409;-47
2022/08/15 13:12:06;;;;;;;2.10;1.90;;;36.50;30.70;;;;;;7381643;19;20384;-47
2022/08/15 13:14:35;;;;;;;2.33;2.13;;;36.10;31.10;;;;;;7383314;19;20404;-47
2022/08/15 13:17:06;;;;;;;3.40;2.87;;;35.60;31.70;;;;;;7357004;19;20423;-47
2022/08/15 13:25:08;;;;;;;3.73;2.13;;;34.90;32.80;;;;;;7381563;19;20488;-47
2022/08/15 13:27:38;;;;;;;6.17;4.20;;;35.00;32.60;;;;;;7382538;19;20495;-47
2022/08/15 13:30:15;;;;;;;3.50;2.50;;;35.00;32.50;;;;;;7381443;19;20386;-47
2022/08/15 13:32:47;;;;;;;8.60;3.30;;;34.80;33.30;;;;;;7382024;19;20373;-47
2022/08/15 13:35:18;;;;;;;5.73;2.50;;;34.60;33.50;;;;;;7384221;19;20769;-47
2022/08/15 13:37:50;;;;;;;2.73;1.93;;;34.80;33.30;;;;;;7378639;19;20826;-47
2022/08/15 13:40:26;;;;;;;23.27;6.03;;;35.00;33.10;;;;;;7382959;19;20916;-47
2022/08/15 13:42:59;;;;;;;3.30;2.37;;;35.00;33.10;;;;;;7381838;19;20364;-47
2022/08/15 13:45:29;;;;;;;2.40;2.20;;;35.00;33.20;;;;;;7381432;19;21053;-47